sensor_id;sensor_type;location;lat;lon;timestamp;pressure;altitude;pressure_sealevel;temperature;humidity
55538;BME280;41383;51.418;7.286;2023-03-19T00:00:55;99441.38;;;12.38;65.44
55538;BME280;41383;51.418;7.286;2023-03-19T00:03:20;99432.34;;;12.37;66.37
55538;BME280;41383;51.418;7.286;2023-03-19T00:05:52;99446.25;;;12.46;67.35
55538;BME280;41383;51.418;7.286;2023-03-19T00:08:18;99436.97;;;12.42;68.34
55538;BME280;41383;51.418;7.286;2023-03-19T00:10:43;99444.94;;;12.39;67.89
55538;BME280;41383;51.418;7.286;2023-03-19T00:13:09;99441.69;;;12.31;67.98
55538;BME280;41383;51.418;7.286;2023-03-19T00:15:34;99441.16;;;12.29;68.32
55538;BME280;41383;51.418;7.286;2023-03-19T00:18:00;99440.97;;;12.20;68.57
55538;BME280;41383;51.418;7.286;2023-03-19T00:20:25;99439.03;;;12.21;68.48
55538;BME280;41383;51.418;7.286;2023-03-19T00:22:51;99443.41;;;12.22;68.67
55538;BME280;41383;51.418;7.286;2023-03-19T00:25:16;99441.22;;;12.19;68.57
55538;BME280;41383;51.418;7.286;2023-03-19T00:27:41;99433.31;;;12.22;68.38
55538;BME280;41383;51.418;7.286;2023-03-19T00:30:08;99433.78;;;12.30;68.07
55538;BME280;41383;51.418;7.286;2023-03-19T00:32:35;99427.50;;;12.29;68.44
55538;BME280;41383;51.418;7.286;2023-03-19T00:35:01;99431.88;;;12.30;68.73
55538;BME280;41383;51.418;7.286;2023-03-19T00:37:26;99425.00;;;12.33;68.45
55538;BME280;41383;51.418;7.286;2023-03-19T00:39:51;99430.47;;;12.33;68.52
55538;BME280;41383;51.418;7.286;2023-03-19T00:42:16;99429.94;;;12.31;68.19
55538;BME280;41383;51.418;7.286;2023-03-19T00:44:42;99435.94;;;12.33;68.02
55538;BME280;41383;51.418;7.286;2023-03-19T00:47:07;99435.94;;;12.33;68.35
55538;BME280;41383;51.418;7.286;2023-03-19T00:49:32;99443.06;;;12.29;67.93
55538;BME280;41383;51.418;7.286;2023-03-19T00:51:58;99442.22;;;12.33;68.29
55538;BME280;41383;51.418;7.286;2023-03-19T00:54:23;99452.34;;;12.33;67.89
55538;BME280;41383;51.418;7.286;2023-03-19T00:56:48;99438.72;;;12.28;68.06
55538;BME280;41383;51.418;7.286;2023-03-19T00:59:13;99443.88;;;12.34;68.09
55538;BME280;41383;51.418;7.286;2023-03-19T01:01:39;99441.91;;;12.40;67.98
55538;BME280;41383;51.418;7.286;2023-03-19T01:04:04;99444.13;;;12.38;68.09
55538;BME280;41383;51.418;7.286;2023-03-19T01:06:30;99441.16;;;12.29;68.66
55538;BME280;41383;51.418;7.286;2023-03-19T01:08:55;99444.75;;;12.24;68.31
55538;BME280;41383;51.418;7.286;2023-03-19T01:11:20;99440.97;;;12.20;68.70
55538;BME280;41383;51.418;7.286;2023-03-19T01:13:46;99442.09;;;12.09;69.75
55538;BME280;41383;51.418;7.286;2023-03-19T01:16:12;99436.44;;;11.95;69.70
55538;BME280;41383;51.418;7.286;2023-03-19T01:18:37;99445.25;;;11.76;70.26
55538;BME280;41383;51.418;7.286;2023-03-19T01:21:02;99441.25;;;11.58;71.24
55538;BME280;41383;51.418;7.286;2023-03-19T01:23:28;99434.72;;;11.53;71.51
55538;BME280;41383;51.418;7.286;2023-03-19T01:25:54;99440.78;;;11.45;71.66
55538;BME280;41383;51.418;7.286;2023-03-19T01:28:21;99442.97;;;11.38;71.85
55538;BME280;41383;51.418;7.286;2023-03-19T01:30:46;99443.00;;;11.32;72.54
55538;BME280;41383;51.418;7.286;2023-03-19T01:33:11;99436.72;;;11.32;72.46
55538;BME280;41383;51.418;7.286;2023-03-19T01:35:37;99435.59;;;11.33;72.79
55538;BME280;41383;51.418;7.286;2023-03-19T01:38:03;99435.06;;;11.31;72.49
55538;BME280;41383;51.418;7.286;2023-03-19T01:40:29;99440.53;;;11.31;72.97
55538;BME280;41383;51.418;7.286;2023-03-19T01:43:11;99437.78;;;11.36;73.07
55538;BME280;41383;51.418;7.286;2023-03-19T01:45:38;99438.56;;;11.47;72.32
55538;BME280;41383;51.418;7.286;2023-03-19T01:48:05;99440.47;;;11.52;71.77
55538;BME280;41383;51.418;7.286;2023-03-19T01:50:39;99440.47;;;11.52;71.90
55538;BME280;41383;51.418;7.286;2023-03-19T01:53:07;99439.06;;;11.65;71.61
55538;BME280;41383;51.418;7.286;2023-03-19T01:55:33;99433.25;;;11.72;70.71
55538;BME280;41383;51.418;7.286;2023-03-19T01:57:59;99435.69;;;11.84;70.29
55538;BME280;41383;51.418;7.286;2023-03-19T02:00:26;99431.81;;;11.90;69.96
55538;BME280;41383;51.418;7.286;2023-03-19T02:02:53;99431.28;;;11.88;69.38
55538;BME280;41383;51.418;7.286;2023-03-19T02:05:20;99429.06;;;11.95;69.32
55538;BME280;41383;51.418;7.286;2023-03-19T02:07:51;99418.16;;;11.90;69.25
55538;BME280;41383;51.418;7.286;2023-03-19T02:10:21;99427.94;;;11.96;68.89
55538;BME280;41383;51.418;7.286;2023-03-19T02:12:47;99424.66;;;11.99;68.27
55538;BME280;41383;51.418;7.286;2023-03-19T02:15:12;99425.75;;;11.98;68.45
55538;BME280;41383;51.418;7.286;2023-03-19T02:17:39;99417.03;;;11.96;68.43
55538;BME280;41383;51.418;7.286;2023-03-19T02:20:22;99411.88;;;11.89;68.80
55538;BME280;41383;51.418;7.286;2023-03-19T02:23:03;99412.69;;;11.90;68.28
55538;BME280;41383;51.418;7.286;2023-03-19T02:28:10;99410.22;;;11.94;67.74
55538;BME280;41383;51.418;7.286;2023-03-19T02:30:37;99409.41;;;11.88;68.16
55538;BME280;41383;51.418;7.286;2023-03-19T02:33:02;99412.38;;;11.97;67.99
55538;BME280;41383;51.418;7.286;2023-03-19T02:35:31;99404.84;;;11.78;68.43
55538;BME280;41383;51.418;7.286;2023-03-19T02:37:57;99417.91;;;11.86;68.16
55538;BME280;41383;51.418;7.286;2023-03-19T02:40:29;99407.81;;;11.87;68.57
55538;BME280;41383;51.418;7.286;2023-03-19T02:42:55;99414.88;;;11.88;68.02
55538;BME280;41383;51.418;7.286;2023-03-19T02:45:22;99409.69;;;11.91;68.17
55538;BME280;41383;51.418;7.286;2023-03-19T02:47:51;99410.50;;;11.92;67.99
55538;BME280;41383;51.418;7.286;2023-03-19T02:50:17;99408.28;;;11.94;68.03
55538;BME280;41383;51.418;7.286;2023-03-19T02:52:42;99413.50;;;11.96;67.73
55538;BME280;41383;51.418;7.286;2023-03-19T02:55:07;99411.31;;;11.93;67.80
55538;BME280;41383;51.418;7.286;2023-03-19T02:57:33;99410.47;;;11.97;68.17
55538;BME280;41383;51.418;7.286;2023-03-19T02:59:59;99411.56;;;11.96;67.62
55538;BME280;41383;51.418;7.286;2023-03-19T03:02:24;99412.09;;;11.98;67.90
55538;BME280;41383;51.418;7.286;2023-03-19T03:04:49;99408.56;;;11.98;67.98
55538;BME280;41383;51.418;7.286;2023-03-19T03:07:15;99408.88;;;11.91;67.90
55538;BME280;41383;51.418;7.286;2023-03-19T03:09:40;99416.53;;;11.89;68.71
55538;BME280;41383;51.418;7.286;2023-03-19T03:12:06;99409.34;;;11.98;68.28
55538;BME280;41383;51.418;7.286;2023-03-19T03:14:32;99414.22;;;12.07;67.82
55538;BME280;41383;51.418;7.286;2023-03-19T03:16:57;99419.69;;;12.12;67.73
55538;BME280;41383;51.418;7.286;2023-03-19T03:19:23;99408.22;;;12.05;68.05
55538;BME280;41383;51.418;7.286;2023-03-19T03:21:48;99413.69;;;12.10;68.18
55538;BME280;41383;51.418;7.286;2023-03-19T03:24:13;99409.34;;;12.03;68.22
55538;BME280;41383;51.418;7.286;2023-03-19T03:26:39;99412.03;;;12.09;68.12
55538;BME280;41383;51.418;7.286;2023-03-19T03:29:05;99416.97;;;12.12;68.47
55538;BME280;41383;51.418;7.286;2023-03-19T03:31:31;99419.69;;;12.12;68.12
55538;BME280;41383;51.418;7.286;2023-03-19T03:33:56;99412.84;;;12.09;68.47
55538;BME280;41383;51.418;7.286;2023-03-19T03:36:22;99418.31;;;12.09;68.60
55538;BME280;41383;51.418;7.286;2023-03-19T03:38:48;99419.41;;;12.08;68.60
55538;BME280;41383;51.418;7.286;2023-03-19T03:41:13;99418.59;;;12.08;68.62
55538;BME280;41383;51.418;7.286;2023-03-19T03:43:38;99422.19;;;12.03;69.28
55538;BME280;41383;51.418;7.286;2023-03-19T03:46:05;99421.34;;;12.02;69.33
55538;BME280;41383;51.418;7.286;2023-03-19T03:48:31;99420.28;;;11.98;69.19
55538;BME280;41383;51.418;7.286;2023-03-19T03:50:56;99428.47;;;12.03;69.73
55538;BME280;41383;51.418;7.286;2023-03-19T03:53:21;99422.22;;;11.98;69.90
55538;BME280;41383;51.418;7.286;2023-03-19T03:55:47;99421.34;;;12.02;69.88
55538;BME280;41383;51.418;7.286;2023-03-19T03:58:13;99424.63;;;12.05;70.10
55538;BME280;41383;51.418;7.286;2023-03-19T04:00:38;99425.75;;;11.98;70.36
55538;BME280;41383;51.418;7.286;2023-03-19T04:03:04;99425.28;;;11.86;71.25
55538;BME280;41383;51.418;7.286;2023-03-19T04:05:29;99432.91;;;11.89;70.94
55538;BME280;41383;51.418;7.286;2023-03-19T04:07:55;99428.53;;;11.93;71.08
55538;BME280;41383;51.418;7.286;2023-03-19T04:10:20;99425.25;;;11.91;70.86
55538;BME280;41383;51.418;7.286;2023-03-19T04:12:45;99420.28;;;11.98;70.69
55538;BME280;41383;51.418;7.286;2023-03-19T04:15:11;99420.03;;;12.00;70.69
55538;BME280;41383;51.418;7.286;2023-03-19T04:17:37;99427.41;;;11.99;70.48
55538;BME280;41383;51.418;7.286;2023-03-19T04:20:03;99421.69;;;11.96;70.88
55538;BME280;41383;51.418;7.286;2023-03-19T04:22:29;99428.53;;;11.93;70.64
55538;BME280;41383;51.418;7.286;2023-03-19T04:24:54;99432.44;;;11.82;71.05
55538;BME280;41383;51.418;7.286;2023-03-19T04:27:20;99432.91;;;11.89;70.92
55538;BME280;41383;51.418;7.286;2023-03-19T04:29:45;99437.81;;;11.92;70.79
55538;BME280;41383;51.418;7.286;2023-03-19T04:32:11;99437.50;;;11.99;70.62
55538;BME280;41383;51.418;7.286;2023-03-19T04:34:36;99441.38;;;11.93;70.68
55538;BME280;41383;51.418;7.286;2023-03-19T04:37:02;99441.13;;;11.89;70.84
55538;BME280;41383;51.418;7.286;2023-03-19T04:39:27;99436.72;;;11.88;70.94
55538;BME280;41383;51.418;7.286;2023-03-19T04:41:53;99453.69;;;11.85;70.63
55538;BME280;41383;51.418;7.286;2023-03-19T04:44:18;99459.47;;;11.78;71.05
55538;BME280;41383;51.418;7.286;2023-03-19T04:46:43;99459.47;;;11.78;71.19
55538;BME280;41383;51.418;7.286;2023-03-19T04:49:10;99457.00;;;11.76;70.98
55538;BME280;41383;51.418;7.286;2023-03-19T04:51:35;99462.22;;;11.73;71.25
55538;BME280;41383;51.418;7.286;2023-03-19T04:54:00;99465.75;;;11.78;71.25
55538;BME280;41383;51.418;7.286;2023-03-19T04:56:26;99469.53;;;11.83;71.38
55538;BME280;41383;51.418;7.286;2023-03-19T04:58:52;99466.00;;;11.82;71.15
55538;BME280;41383;51.418;7.286;2023-03-19T05:01:17;99467.06;;;11.86;71.21
55538;BME280;41383;51.418;7.286;2023-03-19T05:03:43;99470.03;;;11.95;70.80
55538;BME280;41383;51.418;7.286;2023-03-19T05:06:08;99470.66;;;11.82;71.39
55538;BME280;41383;51.418;7.286;2023-03-19T05:08:34;99473.84;;;11.94;71.24
55538;BME280;41383;51.418;7.286;2023-03-19T05:10:59;99480.13;;;11.95;71.45
55538;BME280;41383;51.418;7.286;2023-03-19T05:13:25;99470.59;;;11.92;71.31
55538;BME280;41383;51.418;7.286;2023-03-19T05:15:52;99478.19;;;12.00;70.96
55538;BME280;41383;51.418;7.286;2023-03-19T05:18:18;99480.13;;;12.00;70.72
55538;BME280;41383;51.418;7.286;2023-03-19T05:20:44;99476.59;;;11.94;70.97
55538;BME280;41383;51.418;7.286;2023-03-19T05:23:09;99476.00;;;12.02;70.77
55538;BME280;41383;51.418;7.286;2023-03-19T05:25:35;99476.31;;;11.96;71.00
55538;BME280;41383;51.418;7.286;2023-03-19T05:28:00;99470.03;;;11.95;70.98
55538;BME280;41383;51.418;7.286;2023-03-19T05:30:26;99471.66;;;11.96;71.17
55538;BME280;41383;51.418;7.286;2023-03-19T05:32:51;99478.78;;;11.92;71.27
55538;BME280;41383;51.418;7.286;2023-03-19T05:35:18;99474.94;;;11.98;71.34
55538;BME280;41383;51.418;7.286;2023-03-19T05:37:43;99485.31;;;12.01;71.17
55538;BME280;41383;51.418;7.286;2023-03-19T05:40:09;99485.84;;;11.98;71.08
55538;BME280;41383;51.418;7.286;2023-03-19T05:42:36;99489.13;;;12.00;71.13
55538;BME280;41383;51.418;7.286;2023-03-19T05:45:02;99483.66;;;12.00;70.75
55538;BME280;41383;51.418;7.286;2023-03-19T05:47:29;99494.03;;;12.03;70.82
55538;BME280;41383;51.418;7.286;2023-03-19T05:49:54;99494.59;;;12.00;70.70
55538;BME280;41383;51.418;7.286;2023-03-19T05:52:20;99501.13;;;12.05;70.63
55538;BME280;41383;51.418;7.286;2023-03-19T05:54:45;99494.59;;;12.00;70.64
55538;BME280;41383;51.418;7.286;2023-03-19T05:57:14;99496.28;;;11.91;70.88
55538;BME280;41383;51.418;7.286;2023-03-19T05:59:39;99496.53;;;11.95;71.03
55538;BME280;41383;51.418;7.286;2023-03-19T06:02:05;99495.72;;;11.94;71.29
55538;BME280;41383;51.418;7.286;2023-03-19T06:04:31;99502.53;;;12.02;71.21
55538;BME280;41383;51.418;7.286;2023-03-19T06:06:56;99507.22;;;11.86;71.42
55538;BME280;41383;51.418;7.286;2023-03-19T06:09:22;99510.81;;;11.76;72.32
55538;BME280;41383;51.418;7.286;2023-03-19T06:11:47;99516.28;;;11.76;72.49
55538;BME280;41383;51.418;7.286;2023-03-19T06:14:12;99515.19;;;11.72;72.84
55538;BME280;41383;51.418;7.286;2023-03-19T06:16:38;99514.41;;;11.66;73.74
55538;BME280;41383;51.418;7.286;2023-03-19T06:19:03;99515.72;;;11.79;74.24
55538;BME280;41383;51.418;7.286;2023-03-19T06:21:28;99521.19;;;11.79;74.39
55538;BME280;41383;51.418;7.286;2023-03-19T06:23:55;99523.13;;;11.73;75.27
55538;BME280;41383;51.418;7.286;2023-03-19T06:26:21;99525.28;;;11.82;75.00
55538;BME280;41383;51.418;7.286;2023-03-19T06:28:46;99517.31;;;11.90;75.06
55538;BME280;41383;51.418;7.286;2023-03-19T06:31:11;99527.97;;;11.87;75.53
55538;BME280;41383;51.418;7.286;2023-03-19T06:33:37;99523.09;;;11.84;75.64
55538;BME280;41383;51.418;7.286;2023-03-19T06:36:02;99527.97;;;11.87;75.94
55538;BME280;41383;51.418;7.286;2023-03-19T06:38:27;99532.38;;;11.83;75.87
55538;BME280;41383;51.418;7.286;2023-03-19T06:40:53;99531.28;;;11.84;75.91
55538;BME280;41383;51.418;7.286;2023-03-19T06:43:18;99546.56;;;11.85;75.88
55538;BME280;41383;51.418;7.286;2023-03-19T06:45:44;99545.19;;;11.87;75.68
55538;BME280;41383;51.418;7.286;2023-03-19T06:48:09;99546.84;;;11.78;76.25
55538;BME280;41383;51.418;7.286;2023-03-19T06:50:34;99548.75;;;11.83;75.77
55538;BME280;41383;51.418;7.286;2023-03-19T06:52:59;99555.88;;;11.84;75.80
55538;BME280;41383;51.418;7.286;2023-03-19T06:55:26;99555.06;;;11.73;76.82
55538;BME280;41383;51.418;7.286;2023-03-19T06:57:51;99548.78;;;11.77;76.19
55538;BME280;41383;51.418;7.286;2023-03-19T07:00:17;99552.06;;;11.79;76.45
55538;BME280;41383;51.418;7.286;2023-03-19T07:02:42;99561.88;;;11.81;76.44
55538;BME280;41383;51.418;7.286;2023-03-19T07:05:08;99552.56;;;11.87;76.06
55538;BME280;41383;51.418;7.286;2023-03-19T07:07:33;99562.13;;;11.84;76.26
55538;BME280;41383;51.418;7.286;2023-03-19T07:09:59;99563.47;;;11.92;75.78
55538;BME280;41383;51.418;7.286;2023-03-19T07:12:24;99562.63;;;11.97;75.72
55538;BME280;41383;51.418;7.286;2023-03-19T07:14:52;99561.28;;;11.99;75.72
55538;BME280;41383;51.418;7.286;2023-03-19T07:17:18;99568.34;;;12.06;75.66
55538;BME280;41383;51.418;7.286;2023-03-19T07:19:44;99567.81;;;12.14;75.25
55538;BME280;41383;51.418;7.286;2023-03-19T07:22:09;99570.78;;;12.12;75.02
55538;BME280;41383;51.418;7.286;2023-03-19T07:24:34;99566.69;;;12.15;75.05
55538;BME280;41383;51.418;7.286;2023-03-19T07:27:00;99571.03;;;12.21;74.76
55538;BME280;41383;51.418;7.286;2023-03-19T07:29:26;99575.41;;;12.22;74.71
55538;BME280;41383;51.418;7.286;2023-03-19T07:31:51;99578.69;;;12.19;74.74
55538;BME280;41383;51.418;7.286;2023-03-19T07:34:16;99580.91;;;12.17;74.73
55538;BME280;41383;51.418;7.286;2023-03-19T07:36:42;99586.38;;;12.07;75.02
55538;BME280;41383;51.418;7.286;2023-03-19T07:39:07;99589.09;;;12.07;75.02
55538;BME280;41383;51.418;7.286;2023-03-19T07:41:32;99595.41;;;12.02;75.33
55538;BME280;41383;51.418;7.286;2023-03-19T07:43:58;99598.41;;;12.00;75.93
55538;BME280;41383;51.418;7.286;2023-03-19T07:46:23;99594.81;;;12.10;75.73
55538;BME280;41383;51.418;7.286;2023-03-19T07:48:48;99589.38;;;12.16;75.79
55538;BME280;41383;51.418;7.286;2023-03-19T07:51:14;99591.56;;;12.13;76.19
55538;BME280;41383;51.418;7.286;2023-03-19T07:53:39;99596.22;;;12.02;76.57
55538;BME280;41383;51.418;7.286;2023-03-19T07:56:05;99589.66;;;11.98;77.44
55538;BME280;41383;51.418;7.286;2023-03-19T07:58:30;99596.22;;;12.08;76.91
55538;BME280;41383;51.418;7.286;2023-03-19T08:00:55;99585.28;;;12.13;77.26
55538;BME280;41383;51.418;7.286;2023-03-19T08:03:21;99585.47;;;12.32;76.53
55538;BME280;41383;51.418;7.286;2023-03-19T08:05:49;99592.56;;;12.33;77.22
55538;BME280;41383;51.418;7.286;2023-03-19T08:08:16;99590.03;;;12.47;76.58
55538;BME280;41383;51.418;7.286;2023-03-19T08:10:42;99592.22;;;12.51;75.96
55538;BME280;41383;51.418;7.286;2023-03-19T08:13:07;99589.25;;;12.42;75.70
55538;BME280;41383;51.418;7.286;2023-03-19T08:15:32;99589.81;;;12.39;75.41
55538;BME280;41383;51.418;7.286;2023-03-19T08:17:59;99598.81;;;12.44;75.80
55538;BME280;41383;51.418;7.286;2023-03-19T08:20:25;99597.66;;;12.56;75.06
55538;BME280;41383;51.418;7.286;2023-03-19T08:22:50;99603.69;;;12.53;75.07
55538;BME280;41383;51.418;7.286;2023-03-19T08:25:15;99605.63;;;12.47;75.11
55538;BME280;41383;51.418;7.286;2023-03-19T08:27:41;99602.63;;;12.43;74.33
55538;BME280;41383;51.418;7.286;2023-03-19T08:30:08;99611.97;;;12.37;74.33
55538;BME280;41383;51.418;7.286;2023-03-19T08:32:34;99617.47;;;12.32;75.00
55538;BME280;41383;51.418;7.286;2023-03-19T08:35:00;99615.84;;;12.25;74.80
55538;BME280;41383;51.418;7.286;2023-03-19T08:37:26;99616.69;;;12.21;75.16
55538;BME280;41383;51.418;7.286;2023-03-19T08:39:51;99625.66;;;12.32;74.63
55538;BME280;41383;51.418;7.286;2023-03-19T08:42:20;99621.34;;;12.20;75.24
55538;BME280;41383;51.418;7.286;2023-03-19T08:44:47;99623.50;;;12.23;75.23
55538;BME280;41383;51.418;7.286;2023-03-19T08:47:12;99629.25;;;12.17;75.65
55538;BME280;41383;51.418;7.286;2023-03-19T08:49:37;99630.09;;;12.17;75.56
55538;BME280;41383;51.418;7.286;2023-03-19T08:52:03;99631.75;;;12.08;76.10
55538;BME280;41383;51.418;7.286;2023-03-19T08:54:28;99642.13;;;12.06;76.44
55538;BME280;41383;51.418;7.286;2023-03-19T08:56:54;99638.84;;;12.03;76.66
55538;BME280;41383;51.418;7.286;2023-03-19T08:59:19;99634.19;;;12.14;76.60
55538;BME280;41383;51.418;7.286;2023-03-19T09:01:45;99641.88;;;12.02;76.58
55538;BME280;41383;51.418;7.286;2023-03-19T09:04:10;99645.41;;;12.13;76.89
55538;BME280;41383;51.418;7.286;2023-03-19T09:06:35;99634.94;;;12.31;76.47
55538;BME280;41383;51.418;7.286;2023-03-19T09:09:01;99636.59;;;12.32;76.26
55538;BME280;41383;51.418;7.286;2023-03-19T09:11:26;99646.44;;;12.28;76.37
55538;BME280;41383;51.418;7.286;2023-03-19T09:13:51;99646.97;;;12.35;76.58
55538;BME280;41383;51.418;7.286;2023-03-19T09:16:16;99651.88;;;12.38;76.33
55538;BME280;41383;51.418;7.286;2023-03-19T09:18:42;99654.03;;;12.46;76.34
55538;BME280;41383;51.418;7.286;2023-03-19T09:21:07;99651.50;;;12.55;75.94
55538;BME280;41383;51.418;7.286;2023-03-19T09:23:33;99651.22;;;12.62;75.63
55538;BME280;41383;51.418;7.286;2023-03-19T09:25:58;99658.38;;;12.53;75.66
55538;BME280;41383;51.418;7.286;2023-03-19T09:28:23;99665.47;;;12.59;75.65
55538;BME280;41383;51.418;7.286;2023-03-19T09:30:49;99655.06;;;12.56;75.91
55538;BME280;41383;51.418;7.286;2023-03-19T09:33:16;99656.94;;;12.71;75.70
55538;BME280;41383;51.418;7.286;2023-03-19T09:35:42;99661.28;;;12.72;76.21
55538;BME280;41383;51.418;7.286;2023-03-19T09:38:12;99667.53;;;12.78;75.91
55538;BME280;41383;51.418;7.286;2023-03-19T09:40:40;99664.75;;;12.88;75.90
55538;BME280;41383;51.418;7.286;2023-03-19T09:46:01;99669.53;;;12.67;76.27
55538;BME280;41383;51.418;7.286;2023-03-19T09:51:05;99661.34;;;13.07;75.44
55538;BME280;41383;51.418;7.286;2023-03-19T09:53:44;99665.63;;;13.24;75.48
55538;BME280;41383;51.418;7.286;2023-03-19T09:56:13;99661.16;;;13.33;74.79
55538;BME280;41383;51.418;7.286;2023-03-19T09:58:40;99666.50;;;13.49;74.05
55538;BME280;41383;51.418;7.286;2023-03-19T10:01:19;99667.84;;;13.57;73.65
55538;BME280;41383;51.418;7.286;2023-03-19T10:04:03;99664.75;;;13.69;73.44
55538;BME280;41383;51.418;7.286;2023-03-19T10:06:33;99663.91;;;13.68;72.92
55538;BME280;41383;51.418;7.286;2023-03-19T10:18:06;99674.81;;;14.03;72.00
55538;BME280;41383;51.418;7.286;2023-03-19T10:20:56;99668.94;;;14.15;70.50
55538;BME280;41383;51.418;7.286;2023-03-19T10:25:54;99674.69;;;14.38;69.88
55538;BME280;41383;51.418;7.286;2023-03-19T10:28:21;99667.69;;;14.51;69.64
55538;BME280;41383;51.418;7.286;2023-03-19T10:36:26;99668.34;;;14.87;68.20
55538;BME280;41383;51.418;7.286;2023-03-19T10:38:54;99669.75;;;14.84;67.33
55538;BME280;41383;51.418;7.286;2023-03-19T10:41:33;99670.47;;;14.70;67.70
55538;BME280;41383;51.418;7.286;2023-03-19T10:44:04;99668.00;;;14.69;67.95
55538;BME280;41383;51.418;7.286;2023-03-19T10:46:38;99674.13;;;14.61;68.63
55538;BME280;41383;51.418;7.286;2023-03-19T10:49:03;99665.47;;;14.53;68.01
55538;BME280;41383;51.418;7.286;2023-03-19T10:51:29;99669.50;;;14.36;68.41
55538;BME280;41383;51.418;7.286;2023-03-19T10:53:59;99674.47;;;14.34;68.70
55538;BME280;41383;51.418;7.286;2023-03-19T10:56:27;99676.56;;;14.43;68.29
55538;BME280;41383;51.418;7.286;2023-03-19T11:01:20;99679.69;;;14.55;67.90
55538;BME280;41383;51.418;7.286;2023-03-19T11:03:54;99671.28;;;14.46;68.09
55538;BME280;41383;51.418;7.286;2023-03-19T11:06:31;99679.38;;;14.38;67.93
55538;BME280;41383;51.418;7.286;2023-03-19T11:08:59;99678.25;;;14.39;68.06
55538;BME280;41383;51.418;7.286;2023-03-19T11:16:47;99673.44;;;14.74;67.55
55538;BME280;41383;51.418;7.286;2023-03-19T11:19:19;99670.22;;;14.67;67.29
55538;BME280;41383;51.418;7.286;2023-03-19T11:21:57;99673.63;;;14.58;67.15
55538;BME280;41383;51.418;7.286;2023-03-19T11:24:25;99670.47;;;14.70;67.50
55538;BME280;41383;51.418;7.286;2023-03-19T11:26:54;99675.00;;;14.80;66.80
55538;BME280;41383;51.418;7.286;2023-03-19T11:29:21;99672.50;;;15.03;65.56
55538;BME280;41383;51.418;7.286;2023-03-19T11:34:42;99681.16;;;15.30;65.77
55538;BME280;41383;51.418;7.286;2023-03-19T11:48:45;99663.38;;;15.08;65.15
55538;BME280;41383;51.418;7.286;2023-03-19T11:54:19;99656.44;;;14.72;66.59
55538;BME280;41383;51.418;7.286;2023-03-19T11:56:50;99667.56;;;14.62;66.76
55538;BME280;41383;51.418;7.286;2023-03-19T11:59:41;99661.50;;;14.40;67.02
55538;BME280;41383;51.418;7.286;2023-03-19T12:29:47;99696.06;;;14.17;70.07
55538;BME280;41383;51.418;7.286;2023-03-19T12:32:20;99687.22;;;14.20;70.15
55538;BME280;41383;51.418;7.286;2023-03-19T12:34:52;99690.28;;;14.18;70.10
55538;BME280;41383;51.418;7.286;2023-03-19T12:37:26;99683.84;;;14.04;70.84
55538;BME280;41383;51.418;7.286;2023-03-19T12:40:14;99691.03;;;14.48;70.00
55538;BME280;41383;51.418;7.286;2023-03-19T12:42:46;99684.25;;;14.65;69.82
55538;BME280;41383;51.418;7.286;2023-03-19T12:45:33;99681.41;;;15.14;68.32
55538;BME280;41383;51.418;7.286;2023-03-19T12:48:21;99684.97;;;14.96;68.82
55538;BME280;41383;51.418;7.286;2023-03-19T12:50:50;99676.69;;;14.76;69.27
55538;BME280;41383;51.418;7.286;2023-03-19T12:53:48;99679.03;;;15.08;68.62
55538;BME280;41383;51.418;7.286;2023-03-19T12:56:31;99681.91;;;15.16;68.13
55538;BME280;41383;51.418;7.286;2023-03-19T12:59:21;99683.25;;;15.19;68.17
55538;BME280;41383;51.418;7.286;2023-03-19T13:02:41;99679.84;;;15.27;68.24
55538;BME280;41383;51.418;7.286;2023-03-19T13:05:16;99685.59;;;15.45;67.61
55538;BME280;41383;51.418;7.286;2023-03-19T13:07:53;99689.19;;;15.46;67.76
55538;BME280;41383;51.418;7.286;2023-03-19T13:10:22;99685.41;;;15.22;68.69
55538;BME280;41383;51.418;7.286;2023-03-19T13:12:49;99691.25;;;15.35;67.70
55538;BME280;41383;51.418;7.286;2023-03-19T13:15:18;99685.13;;;15.04;68.91
55538;BME280;41383;51.418;7.286;2023-03-19T13:18:16;99689.94;;;14.69;70.06
55538;BME280;41383;51.418;7.286;2023-03-19T13:23:38;99685.91;;;14.86;69.58
55538;BME280;41383;51.418;7.286;2023-03-19T13:26:08;99679.34;;;14.87;69.58
55538;BME280;41383;51.418;7.286;2023-03-19T13:28:36;99676.06;;;14.85;69.15
55538;BME280;41383;51.418;7.286;2023-03-19T13:31:16;99682.59;;;14.89;68.72
55538;BME280;41383;51.418;7.286;2023-03-19T13:33:51;99682.81;;;14.92;68.49
55538;BME280;41383;51.418;7.286;2023-03-19T13:36:19;99679.69;;;14.99;69.60
55538;BME280;41383;51.418;7.286;2023-03-19T13:38:48;99676.41;;;14.97;69.78
55538;BME280;41383;51.418;7.286;2023-03-19T13:46:47;99686.06;;;15.14;69.61
55538;BME280;41383;51.418;7.286;2023-03-19T13:49:26;99674.28;;;14.94;69.89
55538;BME280;41383;51.418;7.286;2023-03-19T13:51:58;99687.59;;;14.81;71.41
55538;BME280;41383;51.418;7.286;2023-03-19T13:54:35;99687.06;;;14.85;71.78
55538;BME280;41383;51.418;7.286;2023-03-19T13:59:43;99685.78;;;14.96;70.15
55538;BME280;41383;51.418;7.286;2023-03-19T14:05:00;99686.31;;;14.30;68.23
55538;BME280;41383;51.418;7.286;2023-03-19T14:07:35;99686.56;;;14.33;69.72
55538;BME280;41383;51.418;7.286;2023-03-19T14:12:36;99685.34;;;14.89;67.93
55538;BME280;41383;51.418;7.286;2023-03-19T14:17:37;99686.75;;;15.05;67.28
55538;BME280;41383;51.418;7.286;2023-03-19T14:22:39;99684.63;;;15.36;66.43
55538;BME280;41383;51.418;7.286;2023-03-19T14:25:20;99670.13;;;15.16;66.21
55538;BME280;41383;51.418;7.286;2023-03-19T14:27:56;99674.97;;;15.05;66.53
55538;BME280;41383;51.418;7.286;2023-03-19T14:32:49;99670.72;;;15.13;65.95
55538;BME280;41383;51.418;7.286;2023-03-19T14:35:17;99679.84;;;15.27;66.02
55538;BME280;41383;51.418;7.286;2023-03-19T14:37:49;99684.81;;;15.25;65.85
55538;BME280;41383;51.418;7.286;2023-03-19T14:40:39;99680.28;;;15.15;66.23
55538;BME280;41383;51.418;7.286;2023-03-19T14:43:15;99674.13;;;15.04;66.28
55538;BME280;41383;51.418;7.286;2023-03-19T14:56:43;99676.88;;;14.85;67.24